createdAt,value
2018-03-08T00:01:32.802Z,6.50
2018-03-08T00:04:00.328Z,6.70
2018-03-08T00:06:27.784Z,6.87
2018-03-08T00:08:55.333Z,6.55
2018-03-08T00:11:23.071Z,8.10
2018-03-08T00:13:50.489Z,7.12
2018-03-08T00:16:17.991Z,7.25
2018-03-08T00:18:45.377Z,6.57
2018-03-08T00:21:13.186Z,7.60
2018-03-08T00:23:40.621Z,6.80
2018-03-08T00:26:08.363Z,6.97
2018-03-08T00:28:35.782Z,7.78
2018-03-08T00:31:03.176Z,7.00
2018-03-08T00:33:30.586Z,7.22
2018-03-08T00:35:57.986Z,6.55
2018-03-08T00:38:25.389Z,7.20
2018-03-08T00:40:52.808Z,7.50
2018-03-08T00:43:20.209Z,7.10
2018-03-08T00:45:47.618Z,7.60
2018-03-08T00:48:15.037Z,7.50
2018-03-08T00:50:42.449Z,7.10
2018-03-08T00:53:09.862Z,7.70
2018-03-08T00:55:37.256Z,6.65
2018-03-08T00:58:04.656Z,8.00
2018-03-08T01:00:32.069Z,8.10
2018-03-08T01:02:59.477Z,7.22
2018-03-08T01:05:26.904Z,7.10
2018-03-08T01:07:54.428Z,6.85
2018-03-08T01:10:21.885Z,7.28
2018-03-08T01:12:49.245Z,6.60
2018-03-08T01:15:16.643Z,8.43
2018-03-08T01:17:44.065Z,7.65
2018-03-08T01:20:11.456Z,7.90
2018-03-08T01:22:38.852Z,7.57
2018-03-08T01:25:06.265Z,6.93
2018-03-08T01:27:33.661Z,7.47
2018-03-08T01:30:01.087Z,7.80
2018-03-08T01:32:28.485Z,7.68
2018-03-08T01:34:55.880Z,7.85
2018-03-08T01:37:23.295Z,7.55
2018-03-08T01:39:50.688Z,8.00
2018-03-08T01:42:18.102Z,7.55
2018-03-08T01:44:45.504Z,7.30
2018-03-08T01:47:12.897Z,7.07
2018-03-08T01:49:40.313Z,6.75
2018-03-08T01:52:12.203Z,7.45
2018-03-08T01:54:39.617Z,7.85
2018-03-08T01:57:07.026Z,7.68
2018-03-08T01:59:34.433Z,7.20
2018-03-08T02:02:01.858Z,7.70
2018-03-08T02:04:29.252Z,7.28
2018-03-08T02:06:56.666Z,8.52
2018-03-08T02:09:24.065Z,6.75
2018-03-08T02:11:51.476Z,7.30
2018-03-08T02:14:18.884Z,8.30
2018-03-08T02:16:46.285Z,7.60
2018-03-08T02:19:13.704Z,8.00
2018-03-08T02:21:41.117Z,8.45
2018-03-08T02:24:08.509Z,8.20
2018-03-08T02:26:35.929Z,8.38
2018-03-08T02:29:03.328Z,8.70
2018-03-08T02:31:30.770Z,7.93
2018-03-08T02:33:58.178Z,8.48
2018-03-08T02:36:25.576Z,8.32
2018-03-08T02:38:53.000Z,8.05
2018-03-08T02:41:20.403Z,7.70
2018-03-08T02:43:47.820Z,8.85
2018-03-08T02:46:15.221Z,7.57
2018-03-08T02:48:42.636Z,7.70
2018-03-08T02:51:10.043Z,7.10
2018-03-08T02:53:37.439Z,7.75
2018-03-08T02:56:04.864Z,6.97
2018-03-08T02:58:32.254Z,7.15
2018-03-08T03:00:59.649Z,7.20
2018-03-08T03:03:27.058Z,7.68
2018-03-08T03:05:54.456Z,6.55
2018-03-08T03:08:21.869Z,7.95
2018-03-08T03:10:49.273Z,8.05
2018-03-08T03:13:16.670Z,7.45
2018-03-08T03:15:44.071Z,7.37
2018-03-08T03:18:11.481Z,7.65
2018-03-08T03:20:38.894Z,7.60
2018-03-08T03:23:06.302Z,6.90
2018-03-08T03:25:33.701Z,6.35
2018-03-08T03:28:01.122Z,7.62
2018-03-08T03:30:28.524Z,6.78
2018-03-08T03:32:55.941Z,6.65
2018-03-08T03:35:23.342Z,5.85
2018-03-08T03:37:50.754Z,6.70
2018-03-08T03:40:18.149Z,6.80
2018-03-08T03:42:45.545Z,6.22
2018-03-08T03:45:12.960Z,6.70
2018-03-08T03:47:40.360Z,6.07
2018-03-08T03:50:07.757Z,6.85
2018-03-08T03:52:35.302Z,6.65
2018-03-08T03:55:02.714Z,7.45
2018-03-08T03:57:30.122Z,6.65
2018-03-08T03:59:57.520Z,7.18
2018-03-08T04:02:24.913Z,7.30
2018-03-08T04:04:52.321Z,7.40
2018-03-08T04:07:19.729Z,7.15
2018-03-08T04:09:47.140Z,7.35
2018-03-08T04:12:14.593Z,7.75
2018-03-08T04:14:41.954Z,7.78
2018-03-08T04:17:09.361Z,7.28
2018-03-08T04:19:36.770Z,7.47
2018-03-08T04:22:04.181Z,7.75
2018-03-08T04:24:31.585Z,7.53
2018-03-08T04:26:58.976Z,7.35
2018-03-08T04:29:26.391Z,8.18
2018-03-08T04:31:53.793Z,8.00
2018-03-08T04:34:21.213Z,7.85
2018-03-08T04:36:48.620Z,7.70
2018-03-08T04:39:16.021Z,7.55
2018-03-08T04:41:43.434Z,8.35
2018-03-08T04:44:10.834Z,8.30
2018-03-08T04:46:38.245Z,8.00
2018-03-08T04:49:05.645Z,7.93
2018-03-08T04:51:33.045Z,7.65
2018-03-08T04:54:00.472Z,8.40
2018-03-08T04:56:27.870Z,8.20
2018-03-08T04:58:55.285Z,8.25
2018-03-08T05:01:22.693Z,8.75
2018-03-08T05:03:50.097Z,9.10
2018-03-08T05:06:17.510Z,9.07
2018-03-08T05:08:44.902Z,8.93
2018-03-08T05:11:12.321Z,8.88
2018-03-08T05:13:39.729Z,9.95
2018-03-08T05:16:07.140Z,10.10
2018-03-08T05:18:34.544Z,10.00
2018-03-08T05:21:01.949Z,9.30
2018-03-08T05:23:29.369Z,10.25
2018-03-08T05:25:56.780Z,8.70
2018-03-08T05:28:24.191Z,10.38
2018-03-08T05:30:51.623Z,10.45
2018-03-08T05:33:19.021Z,10.32
2018-03-08T05:35:46.437Z,10.25
2018-03-08T05:38:13.845Z,9.25
2018-03-08T05:40:41.258Z,10.43
2018-03-08T05:43:08.669Z,10.27
2018-03-08T05:45:36.082Z,10.35
2018-03-08T05:48:03.505Z,9.45
2018-03-08T05:50:30.912Z,10.25
2018-03-08T05:52:58.316Z,9.68
2018-03-08T05:55:25.834Z,9.57
2018-03-08T05:57:53.230Z,9.60
2018-03-08T06:00:20.657Z,9.77
2018-03-08T06:02:48.061Z,10.63
2018-03-08T06:05:15.477Z,10.45
2018-03-08T06:07:42.899Z,11.63
2018-03-08T06:10:10.312Z,9.40
2018-03-08T06:12:37.734Z,9.45
2018-03-08T06:15:05.145Z,9.13
2018-03-08T06:17:32.550Z,9.77
2018-03-08T06:19:59.965Z,9.05
2018-03-08T06:22:27.371Z,9.05
2018-03-08T06:24:54.795Z,8.85
2018-03-08T06:27:22.208Z,8.93
2018-03-08T06:29:49.618Z,10.35
2018-03-08T06:32:17.034Z,9.15
2018-03-08T06:34:44.432Z,8.45
2018-03-08T06:37:11.851Z,8.60
2018-03-08T06:39:39.256Z,8.45
2018-03-08T06:42:06.661Z,9.02
2018-03-08T06:44:34.094Z,9.40
2018-03-08T06:47:01.515Z,7.37
2018-03-08T06:49:28.914Z,7.22
2018-03-08T06:51:56.376Z,7.18
2018-03-08T06:54:23.737Z,8.20
2018-03-08T06:56:51.151Z,6.57
2018-03-08T06:59:18.559Z,7.75
2018-03-08T07:01:45.969Z,7.50
2018-03-08T07:04:13.367Z,6.78
2018-03-08T07:06:40.770Z,7.00
2018-03-08T07:09:08.195Z,7.55
2018-03-08T07:11:35.598Z,6.95
2018-03-08T07:14:03.009Z,7.15
2018-03-08T07:16:30.409Z,7.85
2018-03-08T07:18:57.809Z,6.93
2018-03-08T07:21:25.230Z,8.57
2018-03-08T07:23:52.624Z,7.20
2018-03-08T07:26:20.050Z,7.65
2018-03-08T07:28:47.449Z,7.68
2018-03-08T07:31:14.854Z,7.28
2018-03-08T07:33:42.261Z,6.60
2018-03-08T07:36:09.678Z,8.32
2018-03-08T07:38:37.110Z,7.87
2018-03-08T07:41:04.502Z,7.60
2018-03-08T07:43:31.912Z,7.22
2018-03-08T07:45:59.329Z,7.65
2018-03-08T07:48:26.732Z,6.93
2018-03-08T07:50:54.158Z,7.75
2018-03-08T07:53:21.565Z,7.05
2018-03-08T07:55:48.957Z,7.00
2018-03-08T07:58:16.357Z,7.13
2018-03-08T08:00:43.752Z,7.23
2018-03-08T08:03:11.160Z,7.33
2018-03-08T08:05:45.242Z,7.07
2018-03-08T08:08:23.433Z,6.30
2018-03-08T08:10:50.828Z,5.87
2018-03-08T08:13:18.216Z,6.50
2018-03-08T08:15:45.617Z,6.20
2018-03-08T08:18:13.009Z,6.57
2018-03-08T08:20:40.417Z,6.50
2018-03-08T08:23:07.817Z,6.10
2018-03-08T08:25:35.208Z,6.43
2018-03-08T08:28:02.618Z,6.97
2018-03-08T08:30:30.014Z,8.90
2018-03-08T08:32:57.421Z,6.60
2018-03-08T08:35:24.813Z,6.20
2018-03-08T08:37:52.214Z,6.80
2018-03-08T08:40:19.624Z,6.40
2018-03-08T08:42:47.017Z,7.30
2018-03-08T08:45:14.425Z,5.70
2018-03-08T08:47:41.833Z,6.57
2018-03-08T08:50:09.221Z,6.17
2018-03-08T08:52:36.630Z,6.53
2018-03-08T08:55:04.043Z,6.40
2018-03-08T08:57:31.449Z,6.97
2018-03-08T08:59:58.850Z,6.53
2018-03-08T09:02:26.245Z,5.90
2018-03-08T09:04:53.653Z,5.20
2018-03-08T09:07:21.056Z,7.13
2018-03-08T09:09:48.463Z,6.23
2018-03-08T09:12:15.857Z,6.57
2018-03-08T09:14:43.258Z,6.17
2018-03-08T09:17:10.661Z,7.63
2018-03-08T09:19:38.061Z,7.37
2018-03-08T09:22:05.469Z,6.20
2018-03-08T09:24:32.861Z,5.97
2018-03-08T09:27:00.256Z,5.97
2018-03-08T09:29:27.685Z,6.70
2018-03-08T09:31:55.088Z,10.67
2018-03-08T09:34:22.500Z,10.10
2018-03-08T09:36:49.906Z,6.63
2018-03-08T09:39:17.301Z,7.23
2018-03-08T09:41:44.684Z,6.70
2018-03-08T09:44:12.096Z,8.50
2018-03-08T09:46:39.488Z,6.00
2018-03-08T09:49:06.937Z,7.10
2018-03-08T09:51:34.301Z,5.60
2018-03-08T09:54:01.708Z,6.93
2018-03-08T09:56:29.117Z,6.67
2018-03-08T09:58:56.555Z,6.13
2018-03-08T10:01:23.918Z,5.00
2018-03-08T10:03:51.312Z,5.40
2018-03-08T10:06:18.733Z,5.40
2018-03-08T10:08:46.128Z,5.30
2018-03-08T10:11:13.529Z,5.90
2018-03-08T10:13:40.942Z,6.23
2018-03-08T10:16:08.368Z,5.30
2018-03-08T10:18:35.761Z,6.30
2018-03-08T10:21:03.172Z,4.90
2018-03-08T10:23:30.570Z,5.17
2018-03-08T10:25:57.964Z,5.23
2018-03-08T10:28:25.373Z,5.33
2018-03-08T10:30:52.769Z,4.70
2018-03-08T10:33:20.178Z,5.30
2018-03-08T10:35:47.593Z,5.63
2018-03-08T10:38:14.990Z,5.23
2018-03-08T10:43:09.799Z,4.87
2018-03-08T10:45:37.192Z,5.23
2018-03-08T10:48:04.598Z,5.13
2018-03-08T10:50:32.004Z,5.27
2018-03-08T10:52:59.404Z,5.37
2018-03-08T10:55:26.801Z,5.17
2018-03-08T10:57:54.215Z,5.00
2018-03-08T11:00:27.159Z,4.53
2018-03-08T11:02:58.424Z,5.17
2018-03-08T11:05:25.820Z,4.90
2018-03-08T11:07:53.231Z,4.60
2018-03-08T11:10:20.640Z,4.60
2018-03-08T11:12:48.033Z,4.70
2018-03-08T11:15:15.428Z,4.93
2018-03-08T11:17:42.837Z,5.47
2018-03-08T11:20:10.236Z,5.40
2018-03-08T11:22:37.653Z,5.30
2018-03-08T11:25:05.059Z,5.27
2018-03-08T11:27:32.465Z,4.80
2018-03-08T11:29:59.956Z,5.20
2018-03-08T11:32:27.293Z,5.00
2018-03-08T11:34:54.685Z,5.00
2018-03-08T11:37:22.086Z,5.33
2018-03-08T11:39:49.493Z,4.73
2018-03-08T11:42:16.898Z,5.73
2018-03-08T11:44:44.302Z,4.53
2018-03-08T11:47:11.709Z,4.40
2018-03-08T11:49:39.111Z,4.90
2018-03-08T11:52:06.500Z,4.80
2018-03-08T11:54:33.918Z,4.43
2018-03-08T11:57:01.324Z,4.57
2018-03-08T11:59:28.729Z,5.00
2018-03-08T12:01:56.140Z,5.00
2018-03-08T12:04:23.532Z,4.30
2018-03-08T12:06:50.933Z,4.17
2018-03-08T12:09:18.346Z,4.70
2018-03-08T12:11:45.744Z,4.07
2018-03-08T12:14:13.145Z,3.73
2018-03-08T12:16:40.573Z,5.30
2018-03-08T12:19:07.969Z,4.03
2018-03-08T12:21:35.382Z,6.00
2018-03-08T12:24:02.798Z,5.03
2018-03-08T12:26:30.188Z,4.60
2018-03-08T12:28:57.585Z,4.27
2018-03-08T12:31:25.001Z,5.07
2018-03-08T12:33:52.401Z,4.20
2018-03-08T12:36:19.795Z,4.70
2018-03-08T12:38:47.325Z,4.10
2018-03-08T12:41:14.766Z,3.93
2018-03-08T12:43:42.108Z,5.00
2018-03-08T12:46:09.524Z,4.23
2018-03-08T12:48:36.913Z,4.30
2018-03-08T12:51:04.309Z,3.73
2018-03-08T12:53:31.713Z,4.43
2018-03-08T12:55:59.140Z,3.93
2018-03-08T12:58:26.508Z,5.00
2018-03-08T13:00:53.920Z,4.20
2018-03-08T13:03:21.312Z,4.00
2018-03-08T13:05:48.720Z,3.90
2018-03-08T13:08:16.134Z,4.03
2018-03-08T13:10:43.549Z,4.27
2018-03-08T13:13:10.942Z,4.67
2018-03-08T13:15:38.363Z,4.00
2018-03-08T13:18:05.761Z,4.30
2018-03-08T13:20:33.157Z,4.00
2018-03-08T13:23:00.567Z,4.00
2018-03-08T13:25:27.960Z,4.40
2018-03-08T13:27:55.352Z,5.10
2018-03-08T13:30:22.770Z,4.00
2018-03-08T13:32:50.172Z,6.00
2018-03-08T13:35:17.575Z,4.57
2018-03-08T13:37:45.031Z,5.10
2018-03-08T13:40:12.389Z,4.47
2018-03-08T13:42:39.790Z,4.20
2018-03-08T13:45:07.200Z,4.20
2018-03-08T13:47:34.599Z,4.47
2018-03-08T13:50:01.999Z,4.53
2018-03-08T13:52:29.437Z,4.00
2018-03-08T13:54:56.808Z,3.67
2018-03-08T13:57:24.206Z,3.90
2018-03-08T13:59:51.622Z,4.20
2018-03-08T14:02:19.012Z,4.33
2018-03-08T14:04:46.404Z,7.43
2018-03-08T14:07:13.816Z,4.90
2018-03-08T14:09:41.215Z,4.90
2018-03-08T14:12:08.606Z,6.40
2018-03-08T14:14:36.017Z,4.30
2018-03-08T14:17:03.435Z,5.17
2018-03-08T14:19:30.833Z,4.80
2018-03-08T14:21:58.244Z,4.60
2018-03-08T14:24:25.640Z,4.10
2018-03-08T14:26:53.043Z,4.50
2018-03-08T14:29:20.455Z,4.40
2018-03-08T14:31:47.858Z,5.00
2018-03-08T14:34:15.254Z,4.23
2018-03-08T14:36:42.662Z,4.70
2018-03-08T14:39:10.056Z,3.77
2018-03-08T14:41:37.452Z,4.37
2018-03-08T14:44:04.862Z,4.47
2018-03-08T14:46:32.261Z,4.40
2018-03-08T14:48:59.694Z,4.53
2018-03-08T14:51:27.077Z,4.33
2018-03-08T14:53:54.470Z,4.10
2018-03-08T14:56:21.867Z,4.70
2018-03-08T14:58:49.273Z,5.40
2018-03-08T15:01:16.699Z,4.43
2018-03-08T15:03:44.084Z,5.07
2018-03-08T15:06:11.485Z,4.07
2018-03-08T15:08:38.897Z,5.43
2018-03-08T15:11:06.292Z,4.57
2018-03-08T15:13:33.706Z,5.07
2018-03-08T15:16:01.109Z,4.77
2018-03-08T15:18:28.516Z,4.93
2018-03-08T15:20:55.931Z,4.70
2018-03-08T15:23:23.324Z,4.60
2018-03-08T15:25:50.734Z,4.80
2018-03-08T15:28:18.152Z,5.10
2018-03-08T15:30:45.558Z,5.10
2018-03-08T15:33:12.956Z,5.20
2018-03-08T15:35:40.382Z,4.70
2018-03-08T15:38:07.781Z,4.90
2018-03-08T15:40:35.176Z,4.60
2018-03-08T15:43:02.637Z,4.17
2018-03-08T15:45:30.033Z,4.03
2018-03-08T15:47:57.433Z,4.43
2018-03-08T15:50:24.845Z,4.47
2018-03-08T15:52:52.237Z,4.80
2018-03-08T15:55:19.637Z,4.10
2018-03-08T15:57:47.049Z,4.33
2018-03-08T16:00:14.441Z,4.90
2018-03-08T16:02:41.837Z,3.97
2018-03-08T16:05:09.245Z,5.20
2018-03-08T16:08:07.246Z,5.00
2018-03-08T16:10:36.587Z,4.97
2018-03-08T16:13:03.973Z,4.40
2018-03-08T16:15:31.380Z,4.07
2018-03-08T16:17:58.809Z,3.97
2018-03-08T16:20:26.206Z,4.37
2018-03-08T16:22:54.431Z,4.27
2018-03-08T16:25:21.844Z,4.40
2018-03-08T16:27:49.236Z,3.83
2018-03-08T16:30:16.636Z,4.40
2018-03-08T16:32:44.050Z,4.20
2018-03-08T16:35:11.446Z,4.87
2018-03-08T16:37:38.836Z,4.80
2018-03-08T16:40:06.245Z,4.17
2018-03-08T16:42:34.605Z,4.50
2018-03-08T16:45:02.026Z,4.30
2018-03-08T16:47:29.433Z,4.57
2018-03-08T16:49:56.852Z,4.70
2018-03-08T16:52:24.243Z,4.27
2018-03-08T16:54:51.657Z,4.90
2018-03-08T16:57:19.078Z,5.90
2018-03-08T16:59:46.465Z,4.80
2018-03-08T17:02:13.881Z,4.73
2018-03-08T17:04:41.264Z,5.07
2018-03-08T17:07:08.664Z,5.73
2018-03-08T17:09:36.082Z,4.60
2018-03-08T17:12:03.513Z,5.20
2018-03-08T17:14:30.915Z,5.20
2018-03-08T17:16:58.321Z,6.27
2018-03-08T17:19:25.745Z,6.37
2018-03-08T17:21:53.185Z,6.30
2018-03-08T17:24:20.552Z,6.10
2018-03-08T17:26:47.949Z,5.93
2018-03-08T17:29:15.341Z,5.17
2018-03-08T17:31:42.749Z,5.63
2018-03-08T17:34:10.143Z,5.60
2018-03-08T17:36:37.542Z,5.70
2018-03-08T17:39:04.989Z,6.03
2018-03-08T17:41:32.397Z,6.20
2018-03-08T17:43:59.794Z,5.50
2018-03-08T17:46:27.201Z,5.27
2018-03-08T17:48:54.605Z,5.73
2018-03-08T17:51:21.984Z,5.87
2018-03-08T17:53:49.401Z,5.40
2018-03-08T17:56:16.814Z,6.40
2018-03-08T17:58:44.194Z,6.07
2018-03-08T18:01:11.610Z,5.97
2018-03-08T18:03:39.000Z,6.00
2018-03-08T18:06:06.389Z,6.27
2018-03-08T18:08:33.803Z,6.23
2018-03-08T18:11:01.192Z,5.80
2018-03-08T18:13:28.585Z,6.07
2018-03-08T18:15:55.992Z,6.07
2018-03-08T18:18:23.384Z,6.20
2018-03-08T18:20:50.772Z,6.33
2018-03-08T18:23:18.183Z,6.03
2018-03-08T18:25:45.578Z,6.33
2018-03-08T18:28:12.977Z,6.30
2018-03-08T18:30:40.396Z,6.83
2018-03-08T18:33:07.789Z,6.40
2018-03-08T18:35:35.185Z,6.30
2018-03-08T18:38:02.598Z,6.43
2018-03-08T18:40:29.997Z,7.30
2018-03-08T18:42:57.380Z,5.93
2018-03-08T18:45:24.793Z,6.80
2018-03-08T18:47:52.189Z,5.67
2018-03-08T18:50:19.598Z,6.23
2018-03-08T18:52:47.004Z,6.07
2018-03-08T18:55:14.406Z,6.60
2018-03-08T18:57:41.805Z,7.10
2018-03-08T19:00:09.212Z,6.50
2018-03-08T19:02:36.604Z,8.03
2018-03-08T19:05:04.014Z,6.10
2018-03-08T19:07:31.425Z,6.80
2018-03-08T19:09:58.827Z,6.40
2018-03-08T19:12:26.224Z,6.97
2018-03-08T19:14:53.641Z,6.13
2018-03-08T19:17:21.037Z,6.90
2018-03-08T19:19:48.441Z,6.97
2018-03-08T19:22:15.924Z,6.40
2018-03-08T19:24:43.596Z,6.47
2018-03-08T19:27:11.026Z,7.10
2018-03-08T19:29:38.543Z,7.03
2018-03-08T19:32:05.955Z,8.73
2018-03-08T19:34:33.452Z,6.07
2018-03-08T19:37:01.045Z,6.33
2018-03-08T19:39:28.503Z,6.13
2018-03-08T19:41:56.001Z,6.20
2018-03-08T19:44:23.514Z,6.60
2018-03-08T19:46:51.162Z,5.90
2018-03-08T19:49:19.058Z,5.90
2018-03-08T19:51:46.825Z,5.30
2018-03-08T19:54:16.044Z,5.73
2018-03-08T19:56:45.266Z,5.60
2018-03-08T19:59:12.872Z,5.10
2018-03-08T20:01:40.417Z,4.90
2018-03-08T20:04:08.327Z,5.73
2018-03-08T20:06:36.525Z,5.93
2018-03-08T20:09:04.247Z,5.43
2018-03-08T20:11:31.734Z,5.90
2018-03-08T20:13:59.347Z,6.13
2018-03-08T20:16:27.071Z,6.13
2018-03-08T20:18:54.757Z,6.23
2018-03-08T20:21:22.866Z,6.23
2018-03-08T20:23:50.723Z,5.10
2018-03-08T20:26:18.462Z,5.37
2018-03-08T20:28:46.425Z,6.07
2018-03-08T20:31:14.665Z,5.50
2018-03-08T20:33:42.914Z,5.67
2018-03-08T20:36:11.232Z,5.60
2018-03-08T20:38:39.471Z,6.27
2018-03-08T20:41:07.612Z,5.90
2018-03-08T20:43:35.872Z,7.60
2018-03-08T20:46:04.080Z,5.60
2018-03-08T20:48:32.156Z,5.40
2018-03-08T20:51:00.328Z,5.43
2018-03-08T20:53:28.199Z,5.80
2018-03-08T20:55:56.126Z,5.37
2018-03-08T20:58:24.128Z,5.70
2018-03-08T21:00:52.115Z,5.53
2018-03-08T21:03:19.673Z,5.73
2018-03-08T21:05:47.266Z,5.23
2018-03-08T21:08:14.763Z,5.60
2018-03-08T21:10:42.204Z,4.80
2018-03-08T21:13:09.683Z,6.10
2018-03-08T21:15:37.045Z,5.30
2018-03-08T21:18:04.458Z,5.57
2018-03-08T21:20:31.871Z,5.03
2018-03-08T21:22:59.257Z,4.80
2018-03-08T21:25:26.661Z,5.40
2018-03-08T21:27:54.073Z,4.70
2018-03-08T21:30:21.459Z,4.77
2018-03-08T21:32:48.853Z,4.87
2018-03-08T21:35:16.290Z,5.27
2018-03-08T21:37:43.681Z,4.73
2018-03-08T21:40:11.077Z,5.10
2018-03-08T21:42:38.490Z,4.80
2018-03-08T21:45:05.879Z,4.63
2018-03-08T21:47:33.275Z,4.97
2018-03-08T21:50:00.682Z,4.70
2018-03-08T21:52:28.081Z,5.77
2018-03-08T21:54:55.656Z,5.00
2018-03-08T21:57:23.065Z,4.60
2018-03-08T21:59:50.461Z,5.10
2018-03-08T22:02:17.859Z,5.80
2018-03-08T22:04:45.261Z,5.20
2018-03-08T22:07:12.653Z,4.87
2018-03-08T22:09:40.044Z,5.30
2018-03-08T22:12:07.464Z,5.13
2018-03-08T22:14:34.837Z,4.77
2018-03-08T22:17:02.225Z,5.73
2018-03-08T22:19:29.633Z,5.93
2018-03-08T22:21:57.035Z,5.63
2018-03-08T22:24:24.420Z,5.20
2018-03-08T22:26:51.833Z,9.00
2018-03-08T22:29:19.228Z,11.10
2018-03-08T22:31:46.625Z,10.60
2018-03-08T22:34:14.040Z,11.07
2018-03-08T22:36:41.446Z,10.80
2018-03-08T22:39:08.836Z,9.40
2018-03-08T22:41:36.248Z,9.30
2018-03-08T22:44:03.646Z,8.70
2018-03-08T22:46:31.033Z,9.20
2018-03-08T22:48:58.446Z,9.00
2018-03-08T22:51:25.852Z,9.43
2018-03-08T22:53:53.261Z,9.23
2018-03-08T22:56:20.710Z,9.00
2018-03-08T22:58:48.082Z,9.68
2018-03-08T23:01:27.277Z,9.80
2018-03-08T23:03:54.686Z,10.63
2018-03-08T23:06:22.102Z,10.25
2018-03-08T23:08:49.524Z,10.80
2018-03-08T23:11:16.934Z,10.35
2018-03-08T23:13:44.341Z,11.05
2018-03-08T23:16:11.765Z,11.18
2018-03-08T23:18:39.169Z,10.57
2018-03-08T23:21:06.564Z,10.30
2018-03-08T23:23:33.984Z,11.15
2018-03-08T23:26:01.389Z,9.13
2018-03-08T23:28:28.808Z,9.98
2018-03-08T23:30:56.225Z,9.60
2018-03-08T23:33:23.624Z,10.25
2018-03-08T23:35:51.054Z,10.27
2018-03-08T23:38:18.473Z,9.70
2018-03-08T23:40:46.709Z,9.57
2018-03-08T23:43:14.119Z,9.10
2018-03-08T23:45:41.532Z,9.02
2018-03-08T23:48:08.949Z,9.40
2018-03-08T23:50:36.342Z,9.17
2018-03-08T23:53:03.754Z,9.70
2018-03-08T23:55:31.161Z,8.50
2018-03-08T23:57:58.553Z,9.00
